Time;durP1;ratioP1;P1;durP2;ratioP2;P2;SDS_P1;SDS_P2;PMS_P1;PMS_P2;Temp;Humidity;BMP_temperature;BMP_pressure;BME280_temperature;BME280_humidity;BME280_pressure;Samples;Min_cycle;Max_cycle;Signal;HPM_P1;HPM_P2
2023/08/14 00:01:01;;;;;;;;;;;;;;;27.00;100.00;99841.69;5101261;28;19928;-74
2023/08/14 00:03:26;;;;;;;;;;;;;;;26.98;100.00;99844.63;5101796;28;19919;-73
2023/08/14 00:05:52;;;;;;;;;;;;;;;26.83;100.00;99847.84;5102125;28;19920;-73
2023/08/14 00:08:18;;;;;;;;;;;;;;;26.68;100.00;99841.34;5103717;28;19923;-73
2023/08/14 00:10:44;;;;;;;;;;;;;;;26.53;100.00;99851.84;5100960;28;19920;-71
2023/08/14 00:13:10;;;;;;;;;;;;;;;26.41;100.00;99851.88;5103709;28;19919;-74
2023/08/14 00:15:35;;;;;;;;;;;;;;;26.31;100.00;99859.78;5101563;28;19928;-73
2023/08/14 00:18:00;;;;;;;;;;;;;;;26.23;100.00;99866.38;5102629;28;20082;-74
2023/08/14 00:20:26;;;;;;;;;;;;;;;26.10;100.00;99866.56;5102886;28;19962;-72
2023/08/14 00:22:51;;;;;;;;;;;;;;;25.95;100.00;99871.63;5101875;28;19931;-72
2023/08/14 00:25:17;;;;;;;;;;;;;;;25.96;100.00;99867.88;5104168;28;19922;-73
2023/08/14 00:27:42;;;;;;;;;;;;;;;25.99;100.00;99878.22;5101007;28;19924;-72
2023/08/14 00:30:07;;;;;;;;;;;;;;;25.74;100.00;99877.63;5103659;28;19954;-73
2023/08/14 00:32:33;;;;;;;;;;;;;;;25.89;100.00;99877.97;5101648;28;19920;-73
2023/08/14 00:34:58;;;;;;;;;;;;;;;25.98;100.00;99876.56;5100886;28;19920;-73
2023/08/14 00:37:38;;;;;;;;;;;;;;;26.07;100.00;99886.00;5102991;28;19924;-72
2023/08/14 00:40:04;;;;;;;;;;;;;;;26.14;100.00;99877.75;5103321;28;19946;-73
2023/08/14 00:42:29;;;;;;;;;;;;;;;26.12;100.00;99882.56;5101018;28;19920;-72
2023/08/14 00:44:54;;;;;;;;;;;;;;;26.11;100.00;99881.75;5100350;28;19920;-72
2023/08/14 00:47:20;;;;;;;;;;;;;;;26.18;100.00;99882.44;5103343;28;19930;-73
2023/08/14 00:49:45;;;;;;;;;;;;;;;26.20;100.00;99880.34;5100750;28;19920;-74
2023/08/14 00:52:11;;;;;;;;;;;;;;;26.21;100.00;99879.28;5104124;28;20413;-73
2023/08/14 00:54:36;;;;;;;;;;;;;;;26.17;100.00;99882.69;5101286;28;19930;-73
2023/08/14 00:57:02;;;;;;;;;;;;;;;26.19;100.00;99878.69;5102807;28;19966;-73
2023/08/14 00:59:29;;;;;;;;;;;;;;;26.22;100.00;99878.19;5099135;28;19932;-72
2023/08/14 01:01:55;;;;;;;;;;;;;;;26.24;100.00;99876.13;5097807;28;19924;-72
2023/08/14 01:04:20;;;;;;;;;;;;;;;26.18;100.00;99877.03;5101693;28;19930;-73
2023/08/14 01:06:45;;;;;;;;;;;;;;;26.18;100.00;99866.22;5101157;28;19927;-73
2023/08/14 01:09:11;;;;;;;;;;;;;;;26.18;100.00;99866.22;5104737;28;19924;-73
2023/08/14 01:11:43;;;;;;;;;;;;;;;26.16;100.00;99870.22;5100468;28;19920;-73
2023/08/14 01:14:23;;;;;;;;;;;;;;;26.17;100.00;99867.28;5106530;28;19920;-73
2023/08/14 01:16:51;;;;;;;;;;;;;;;26.09;100.00;99883.88;5101045;28;19920;-72
2023/08/14 01:19:22;;;;;;;;;;;;;;;26.03;100.00;99879.41;5107832;28;19972;-73
2023/08/14 01:22:00;;;;;;;;;;;;;;;25.94;100.00;99870.00;5105429;28;19927;-73
2023/08/14 01:24:43;;;;;;;;;;;;;;;25.96;100.00;99874.13;5107166;27;19919;-70
2023/08/14 01:27:09;;;;;;;;;;;;;;;25.90;100.00;99866.13;5108173;28;20393;-73
2023/08/14 01:29:35;;;;;;;;;;;;;;;25.86;100.00;99868.44;5105747;28;19958;-73
2023/08/14 01:32:00;;;;;;;;;;;;;;;25.91;100.00;99873.19;5105855;28;19943;-73
2023/08/14 01:34:25;;;;;;;;;;;;;;;25.89;100.00;99868.00;5105606;28;19999;-72
2023/08/14 01:36:59;;;;;;;;;;;;;;;25.78;100.00;99876.09;5104457;28;19947;-73
2023/08/14 01:39:29;;;;;;;;;;;;;;;25.68;100.00;99880.19;5105711;28;19964;-74
2023/08/14 01:42:08;;;;;;;;;;;;;;;25.74;100.00;99874.94;5104893;28;20022;-72
2023/08/14 01:44:35;;;;;;;;;;;;;;;25.61;100.00;99876.78;5104531;28;20048;-74
2023/08/14 01:47:03;;;;;;;;;;;;;;;25.50;100.00;99882.16;5105150;28;19973;-74
2023/08/14 01:49:30;;;;;;;;;;;;;;;25.43;100.00;99879.53;5104493;28;19927;-72
2023/08/14 01:51:55;;;;;;;;;;;;;;;25.42;100.00;99880.59;5104648;28;19916;-72
2023/08/14 01:54:20;;;;;;;;;;;;;;;25.37;100.00;99875.06;5105628;28;20318;-72
2023/08/14 01:56:46;;;;;;;;;;;;;;;25.31;100.00;99873.28;5103268;28;19924;-72
2023/08/14 01:59:11;;;;;;;;;;;;;;;25.33;100.00;99876.56;5106662;28;19924;-73
2023/08/14 02:01:37;;;;;;;;;;;;;;;25.37;100.00;99883.16;5103127;27;19920;-73
2023/08/14 02:04:05;;;;;;;;;;;;;;;25.38;100.00;99882.13;5103275;28;19967;-73
2023/08/14 02:06:31;;;;;;;;;;;;;;;25.44;100.00;99880.38;5104355;28;19920;-73
2023/08/14 02:08:57;;;;;;;;;;;;;;;25.44;100.00;99881.19;5104512;28;19924;-72
2023/08/14 02:11:22;;;;;;;;;;;;;;;25.50;100.00;99885.66;5105335;28;19930;-72
2023/08/14 02:13:47;;;;;;;;;;;;;;;25.42;100.00;99880.59;5102036;28;19920;-72
2023/08/14 02:16:13;;;;;;;;;;;;;;;25.43;100.00;99890.34;5106440;28;19920;-73
2023/08/14 02:18:38;;;;;;;;;;;;;;;25.32;100.00;99893.84;5102504;28;19942;-73
2023/08/14 02:21:04;;;;;;;;;;;;;;;25.39;100.00;99894.53;5103557;28;19926;-74
2023/08/14 02:23:30;;;;;;;;;;;;;;;25.31;100.00;99897.59;5104042;28;19919;-73
2023/08/14 02:25:55;;;;;;;;;;;;;;;25.12;100.00;99891.41;5102439;28;19920;-73
2023/08/14 02:28:21;;;;;;;;;;;;;;;25.05;100.00;99892.53;5105147;28;20034;-73
2023/08/14 02:30:47;;;;;;;;;;;;;;;25.05;100.00;99892.53;5102868;28;19920;-73
2023/08/14 02:33:13;;;;;;;;;;;;;;;25.02;100.00;99893.03;5105450;28;19926;-73
2023/08/14 02:35:39;;;;;;;;;;;;;;;25.03;100.00;99894.69;5102564;28;19974;-73
2023/08/14 02:38:06;;;;;;;;;;;;;;;25.04;100.00;99896.28;5104795;28;19928;-74
2023/08/14 02:40:31;;;;;;;;;;;;;;;24.94;100.00;99896.03;5103670;28;19924;-73
2023/08/14 02:43:02;;;;;;;;;;;;;;;24.96;100.00;99900.16;5103952;28;19920;-73
2023/08/14 02:45:28;;;;;;;;;;;;;;;25.00;100.00;99900.50;5104083;28;19927;-72
2023/08/14 02:47:53;;;;;;;;;;;;;;;25.04;100.00;99893.59;5103382;28;19920;-72
2023/08/14 02:50:21;;;;;;;;;;;;;;;25.07;100.00;99895.84;5103894;28;19966;-72
2023/08/14 02:52:47;;;;;;;;;;;;;;;25.07;100.00;99890.44;5100707;28;19920;-72
2023/08/14 02:55:12;;;;;;;;;;;;;;;25.03;100.00;99884.69;5105169;27;19919;-72
2023/08/14 02:57:38;;;;;;;;;;;;;;;25.05;100.00;99892.53;5102261;28;19939;-72
2023/08/14 03:00:04;;;;;;;;;;;;;;;24.96;100.00;99885.84;5104293;28;19920;-72
2023/08/14 03:02:29;;;;;;;;;;;;;;;24.74;100.00;99885.47;5102972;28;19924;-72
2023/08/14 03:04:55;;;;;;;;;;;;;;;24.74;100.00;99886.25;5102712;28;19920;-73
2023/08/14 03:07:20;;;;;;;;;;;;;;;24.76;100.00;99889.56;5103962;28;20022;-71
2023/08/14 03:09:46;;;;;;;;;;;;;;;24.78;100.00;99881.25;5101714;28;20077;-73
2023/08/14 03:12:11;;;;;;;;;;;;;;;24.77;100.00;99885.00;5105318;28;19923;-72
2023/08/14 03:14:36;;;;;;;;;;;;;;;24.84;100.00;99881.16;5102237;28;19920;-72
2023/08/14 03:17:02;;;;;;;;;;;;;;;24.90;100.00;99886.75;5103749;28;19920;-73
2023/08/14 03:19:27;;;;;;;;;;;;;;;24.90;100.00;99886.75;5101865;28;19926;-72
2023/08/14 03:21:53;;;;;;;;;;;;;;;24.91;100.00;99891.09;5100521;28;19958;-72
2023/08/14 03:24:18;;;;;;;;;;;;;;;24.99;100.00;99899.69;5104110;28;19969;-72
2023/08/14 03:26:44;;;;;;;;;;;;;;;25.00;100.00;99889.72;5100158;28;19969;-73
2023/08/14 03:29:09;;;;;;;;;;;;;;;24.94;100.00;99894.16;5104631;28;19919;-73
2023/08/14 03:31:35;;;;;;;;;;;;;;;24.80;100.00;99890.75;5100823;28;19927;-73
2023/08/14 03:34:02;;;;;;;;;;;;;;;24.62;100.00;99895.38;5101755;28;20384;-73
2023/08/14 03:36:27;;;;;;;;;;;;;;;24.62;100.00;99900.75;5100675;28;20019;-73
2023/08/14 03:38:56;;;;;;;;;;;;;;;24.65;100.00;99897.59;5102717;28;20214;-73
2023/08/14 03:41:21;;;;;;;;;;;;;;;24.68;100.00;99907.97;5103113;28;19931;-74
2023/08/14 03:43:47;;;;;;;;;;;;;;;24.55;100.00;99898.13;5100030;28;19920;-73
2023/08/14 03:46:13;;;;;;;;;;;;;;;24.25;100.00;99899.91;5104461;28;20073;-73
2023/08/14 03:48:38;;;;;;;;;;;;;;;24.05;100.00;99903.59;5099967;28;19967;-74
2023/08/14 03:51:04;;;;;;;;;;;;;;;23.95;100.00;99895.19;5103459;28;19924;-72
2023/08/14 03:53:30;;;;;;;;;;;;;;;23.96;100.00;99899.53;5102069;28;19964;-73
2023/08/14 03:55:55;;;;;;;;;;;;;;;24.02;100.00;99898.66;5102476;28;20022;-74
2023/08/14 03:58:21;;;;;;;;;;;;;;;24.09;100.00;99894.00;5103257;28;19924;-72
2023/08/14 04:00:49;;;;;;;;;;;;;;;24.20;100.00;99902.47;5100992;28;19920;-73
2023/08/14 04:03:14;;;;;;;;;;;;;;;24.28;100.00;99902.16;5103865;28;20383;-73
2023/08/14 04:05:40;;;;;;;;;;;;;;;24.27;100.00;99908.63;5100857;28;19955;-73
2023/08/14 04:08:06;;;;;;;;;;;;;;;24.35;100.00;99908.31;5102919;28;19942;-73
2023/08/14 04:10:32;;;;;;;;;;;;;;;24.30;100.00;99914.38;5102038;28;20279;-73
2023/08/14 04:12:57;;;;;;;;;;;;;;;24.11;100.00;99918.06;5100856;28;19934;-71
2023/08/14 04:15:23;;;;;;;;;;;;;;;23.91;100.00;99923.63;5102655;28;20014;-72
2023/08/14 04:17:48;;;;;;;;;;;;;;;23.79;100.00;99922.69;5100972;28;19920;-72
2023/08/14 04:20:13;;;;;;;;;;;;;;;23.71;100.00;99922.97;5103538;28;19964;-73
2023/08/14 04:22:39;;;;;;;;;;;;;;;23.71;100.00;99922.13;5099328;28;19927;-73
2023/08/14 04:25:05;;;;;;;;;;;;;;;23.73;100.00;99926.28;5100986;28;19959;-73
2023/08/14 04:27:30;;;;;;;;;;;;;;;23.66;100.00;99920.09;5101691;28;19919;-74
2023/08/14 04:29:56;;;;;;;;;;;;;;;23.60;100.00;99920.97;5102019;28;19995;-74
2023/08/14 04:32:21;;;;;;;;;;;;;;;23.57;100.00;99924.09;5103012;28;19927;-73
2023/08/14 04:34:47;;;;;;;;;;;;;;;23.54;100.00;99928.06;5100253;28;19920;-72
2023/08/14 04:37:12;;;;;;;;;;;;;;;23.55;100.00;99923.50;5102444;28;19926;-73
2023/08/14 04:39:38;;;;;;;;;;;;;;;23.66;100.00;99925.50;5100369;28;20363;-73
2023/08/14 04:42:03;;;;;;;;;;;;;;;23.65;100.00;99918.44;5100745;28;19926;-73
2023/08/14 04:44:29;;;;;;;;;;;;;;;23.50;100.00;99918.75;5100497;28;20007;-73
2023/08/14 04:46:54;;;;;;;;;;;;;;;23.42;100.00;99918.16;5101210;28;19947;-73
2023/08/14 04:49:21;;;;;;;;;;;;;;;23.38;100.00;99914.25;5101103;28;19927;-74
2023/08/14 04:51:46;;;;;;;;;;;;;;;23.30;100.00;99914.50;5098812;28;19927;-73
2023/08/14 04:54:12;;;;;;;;;;;;;;;23.26;100.00;99912.25;4760020;22;10001525;-69
2023/08/14 04:56:38;;;;;;;;;;;;;;;23.26;100.00;99914.97;4681002;28;9999621;-71
2023/08/14 04:59:03;;;;;;;;;;;;;;;23.39;100.00;99910.50;5059837;28;19925;-70
2023/08/14 05:01:29;;;;;;;;;;;;;;;23.50;100.00;99907.16;5030781;28;19957;-71
2023/08/14 05:03:56;;;;;;;;;;;;;;;23.62;100.00;99908.13;5029883;28;19991;-70
2023/08/14 05:06:23;;;;;;;;;;;;;;;23.58;100.00;99912.28;5029846;28;19925;-71
2023/08/14 05:08:48;;;;;;;;;;;;;;;23.56;100.00;99917.06;5031464;28;19998;-71
2023/08/14 05:11:13;;;;;;;;;;;;;;;23.61;100.00;99917.25;5030892;28;19949;-71
2023/08/14 05:13:44;;;;;;;;;;;;;;;23.72;100.00;99927.31;5030190;28;19927;-72
2023/08/14 05:16:10;;;;;;;;;;;;;;;23.64;100.00;99924.88;5030129;28;19960;-71
2023/08/14 05:18:36;;;;;;;;;;;;;;;23.59;100.00;99924.72;5032315;28;19936;-72
2023/08/14 05:21:02;;;;;;;;;;;;;;;23.62;100.00;99924.28;5033635;28;19956;-71
2023/08/14 05:23:27;;;;;;;;;;;;;;;23.56;100.00;99922.47;5033637;28;19928;-71
2023/08/14 05:25:52;;;;;;;;;;;;;;;23.64;100.00;99924.88;5058115;28;19925;-71
2023/08/14 05:28:18;;;;;;;;;;;;;;;23.74;100.00;99930.59;5030996;28;20572;-71
2023/08/14 05:30:46;;;;;;;;;;;;;;;23.75;100.00;99934.94;5031209;28;19932;-72
2023/08/14 05:33:12;;;;;;;;;;;;;;;23.78;100.00;99931.81;5027313;28;19955;-71
2023/08/14 05:35:37;;;;;;;;;;;;;;;23.72;100.00;99930.00;5031363;28;20361;-72
2023/08/14 05:38:03;;;;;;;;;;;;;;;23.70;100.00;99937.47;5031428;28;20427;-71
2023/08/14 05:40:29;;;;;;;;;;;;;;;23.68;100.00;99935.00;5036164;28;19963;-72
2023/08/14 05:43:03;;;;;;;;;;;;;;;23.74;100.00;99933.28;5030163;28;19921;-72
2023/08/14 05:45:29;;;;;;;;;;;;;;;23.81;100.00;99944.84;5030921;28;19921;-71
2023/08/14 05:47:55;;;;;;;;;;;;;;;23.92;100.00;99944.13;5030982;28;20374;-71
2023/08/14 05:50:21;;;;;;;;;;;;;;;23.99;100.00;99942.22;5030660;28;20015;-72
2023/08/14 05:52:46;;;;;;;;;;;;;;;24.11;100.00;99933.41;5031111;28;19921;-71
2023/08/14 05:55:11;;;;;;;;;;;;;;;24.19;100.00;99938.56;5030440;28;20450;-71
2023/08/14 05:57:37;;;;;;;;;;;;;;;24.26;100.00;99942.03;5031304;28;19960;-72
2023/08/14 06:00:03;;;;;;;;;;;;;;;24.26;100.00;99942.03;5032765;28;19924;-72
2023/08/14 06:02:38;;;;;;;;;;;;;;;24.25;100.00;99948.47;5034771;28;20686;-72
2023/08/14 06:05:03;;;;;;;;;;;;;;;24.24;100.00;99954.88;5034427;28;19960;-72
2023/08/14 06:07:29;;;;;;;;;;;;;;;24.11;100.00;99949.59;5034679;28;19974;-72
2023/08/14 06:09:54;;;;;;;;;;;;;;;23.95;100.00;99941.00;5034366;28;20024;-71
2023/08/14 06:12:19;;;;;;;;;;;;;;;23.96;100.00;99937.28;5034237;28;19964;-72
2023/08/14 06:14:45;;;;;;;;;;;;;;;24.06;100.00;99943.00;5033463;28;19987;-72
2023/08/14 06:17:10;;;;;;;;;;;;;;;24.08;100.00;99937.38;5034122;28;19921;-72
2023/08/14 06:19:35;;;;;;;;;;;;;;;24.20;100.00;99948.31;5034476;28;19929;-72
2023/08/14 06:22:01;;;;;;;;;;;;;;;24.31;100.00;99944.88;5033983;28;20385;-71
2023/08/14 06:24:28;;;;;;;;;;;;;;;24.40;100.00;99954.31;5034122;28;19944;-72
2023/08/14 06:26:55;;;;;;;;;;;;;;;24.44;100.00;99952.84;5033026;28;19994;-71
2023/08/14 06:29:20;;;;;;;;;;;;;;;24.41;100.00;99956.78;5034018;28;19925;-71
2023/08/14 06:31:45;;;;;;;;;;;;;;;24.50;100.00;99959.22;5034255;28;19976;-72
2023/08/14 06:34:11;;;;;;;;;;;;;;;24.55;100.00;99952.09;5032746;28;20300;-72
2023/08/14 06:36:36;;;;;;;;;;;;;;;24.60;100.00;99949.56;5034104;28;19925;-72
2023/08/14 06:39:01;;;;;;;;;;;;;;;24.73;100.00;99948.59;5033922;28;19975;-72
2023/08/14 06:41:27;;;;;;;;;;;;;;;24.71;100.00;99951.50;5033652;28;19921;-72
2023/08/14 06:43:53;;;;;;;;;;;;;;;24.79;100.00;99948.50;5034147;28;19964;-71
2023/08/14 06:46:18;;;;;;;;;;;;;;;24.90;100.00;99959.63;5033673;28;20385;-72
2023/08/14 06:48:43;;;;;;;;;;;;;;;24.99;100.00;99950.97;5034017;28;19921;-72
2023/08/14 06:51:09;;;;;;;;;;;;;;;24.99;100.00;99952.84;5033619;28;19963;-72
2023/08/14 06:53:34;;;;;;;;;;;;;;;25.06;100.00;99965.22;5033785;28;20266;-73
2023/08/14 06:55:59;;;;;;;;;;;;;;;25.05;100.00;99968.97;5033123;28;20282;-72
2023/08/14 06:58:25;;;;;;;;;;;;;;;24.93;100.00;99973.47;5033536;28;19931;-73
2023/08/14 07:00:50;;;;;;;;;;;;;;;25.00;100.00;99965.31;5033727;28;19944;-73
2023/08/14 07:03:15;;;;;;;;;;;;;;;25.07;100.00;99968.75;5033526;28;19921;-72
2023/08/14 07:05:41;;;;;;;;;;;;;;;25.18;100.00;99962.59;5033790;28;19921;-72
2023/08/14 07:08:06;;;;;;;;;;;;;;;25.09;100.00;99966.66;5033233;28;20011;-72
2023/08/14 07:10:31;;;;;;;;;;;;;;;25.07;100.00;99966.88;5033358;28;19925;-71
2023/08/14 07:12:57;;;;;;;;;;;;;;;25.14;100.00;99964.94;5033639;28;19922;-73
2023/08/14 07:15:22;;;;;;;;;;;;;;;25.24;100.00;99961.69;5033360;28;19948;-71
2023/08/14 07:17:47;;;;;;;;;;;;;;;25.34;100.00;99964.66;5034136;28;19921;-72
2023/08/14 07:20:13;;;;;;;;;;;;;;;25.42;100.00;99958.94;5033901;28;20393;-72
2023/08/14 07:22:38;;;;;;;;;;;;;;;25.47;100.00;99963.66;5034217;28;20026;-72
2023/08/14 07:25:04;;;;;;;;;;;;;;;25.54;100.00;99959.81;5033750;28;20366;-73
2023/08/14 07:27:29;;;;;;;;;;;;;;;25.59;100.00;99970.78;5033353;28;19921;-73
2023/08/14 07:29:55;;;;;;;;;;;;;;;25.64;100.00;99965.50;5033415;28;19921;-70
2023/08/14 07:32:20;;;;;;;;;;;;;;;25.75;100.00;99965.75;5033010;28;19921;-72
2023/08/14 07:34:45;;;;;;;;;;;;;;;25.83;100.00;99965.44;5034361;28;20293;-72
2023/08/14 07:37:11;;;;;;;;;;;;;;;25.91;100.00;99967.81;5036670;28;19929;-72
2023/08/14 07:39:36;;;;;;;;;;;;;;;25.95;100.00;99959.00;5034442;28;19956;-71
2023/08/14 07:42:01;;;;;;;;;;;;;;;26.00;100.00;99961.00;5037028;28;19929;-72
2023/08/14 07:44:26;;;;;;;;;;;;;;;26.05;100.00;99964.63;5037074;28;19921;-71
2023/08/14 07:46:52;;;;;;;;;;;;;;;26.10;100.00;99961.22;5033419;28;20423;-71
2023/08/14 07:49:17;;;;;;;;;;;;;;;26.15;100.00;99968.66;5056961;28;20000;-72
2023/08/14 07:51:43;;;;;;;;;;;;;;;26.15;100.00;99968.66;5033166;28;19932;-72
2023/08/14 07:54:08;;;;;;;;;;;;;;;26.12;100.00;99967.22;5032682;28;19927;-71
2023/08/14 07:56:33;;;;;;;;;;;;;;;26.17;100.00;99967.34;5032849;28;20491;-72
2023/08/14 07:59:00;;;;;;;;;;;;;;;26.26;100.00;99971.41;5032699;28;19921;-72
2023/08/14 08:01:27;;;;;;;;;;;;;;;26.32;100.00;99965.06;5032617;28;19924;-71
2023/08/14 08:03:52;;;;;;;;;;;;;;;26.35;100.00;99964.56;5032893;28;19928;-71
2023/08/14 08:06:18;;;;;;;;;;;;;;;26.42;100.00;99961.75;5032515;28;19921;-71
2023/08/14 08:08:43;;;;;;;;;;;;;;;26.43;100.00;99966.09;5033097;28;20419;-71
2023/08/14 08:11:09;;;;;;;;;;;;;;;26.48;100.00;99958.09;5031989;28;19928;-71
2023/08/14 08:13:34;;;;;;;;;;;;;;;26.55;100.00;99963.41;5032727;28;19932;-72
2023/08/14 08:15:59;;;;;;;;;;;;;;;26.65;100.00;99963.59;5032442;28;20296;-70
2023/08/14 08:18:24;;;;;;;;;;;;;;;26.72;100.00;99961.59;5031096;28;19951;-71
2023/08/14 08:20:50;;;;;;;;;;;;;;;26.78;100.00;99955.25;5032430;28;19967;-71
2023/08/14 08:23:15;;;;;;;;;;;;;;;26.85;100.00;99958.66;5030402;28;20389;-71
2023/08/14 08:25:40;;;;;;;;;;;;;;;26.96;100.00;99957.81;5031009;28;19921;-71
2023/08/14 08:28:06;;;;;;;;;;;;;;;27.05;100.00;99952.84;5032139;28;19929;-72
2023/08/14 08:30:31;;;;;;;;;;;;;;;27.14;100.00;99956.81;5032232;28;19921;-71
2023/08/14 08:32:56;;;;;;;;;;;;;;;27.22;100.00;99953.72;5032436;28;19968;-71
2023/08/14 08:35:22;;;;;;;;;;;;;;;27.29;100.00;99949.81;5032278;28;19917;-72
2023/08/14 08:37:47;;;;;;;;;;;;;;;27.37;100.00;99950.47;5031089;28;19941;-72
2023/08/14 08:40:13;;;;;;;;;;;;;;;27.43;100.00;99954.94;5032402;28;19989;-71
2023/08/14 08:42:38;;;;;;;;;;;;;;;27.48;100.00;99952.31;5034217;28;19957;-72
2023/08/14 08:45:04;;;;;;;;;;;;;;;27.52;100.00;99958.91;5033436;28;19925;-72
2023/08/14 08:47:31;;;;;;;;;;;;;;;27.53;100.00;99955.97;5032807;28;19921;-72
2023/08/14 08:49:56;;;;;;;;;;;;;;;27.55;100.00;99958.44;5032367;28;20333;-72
2023/08/14 08:52:22;;;;;;;;;;;;;;;27.54;100.00;99956.78;5031701;28;19956;-71
2023/08/14 08:54:50;;;;;;;;;;;;;;;27.58;100.00;99957.94;5031800;28;19972;-72
2023/08/14 08:57:16;;;;;;;;;;;;;;;27.64;100.00;99951.53;5031645;28;19983;-72
2023/08/14 08:59:42;;;;;;;;;;;;;;;27.68;100.00;99953.53;5027957;28;20397;-72
2023/08/14 09:02:08;;;;;;;;;;;;;;;27.75;100.00;99947.94;5031390;28;19921;-73
2023/08/14 09:04:33;;;;;;;;;;;;;;;27.77;100.00;99956.66;5031956;28;20012;-72
2023/08/14 09:06:58;;;;;;;;;;;;;;;27.81;100.00;99955.09;5031874;28;19917;-72
2023/08/14 09:09:24;;;;;;;;;;;;;;;27.86;100.00;99946.25;5031597;28;19921;-72
2023/08/14 09:11:49;;;;;;;;;;;;;;;27.91;100.00;99949.88;5031475;28;19917;-72
2023/08/14 09:14:17;;;;;;;;;;;;;;;27.95;100.00;99953.72;5031483;28;19921;-72
2023/08/14 09:16:44;;;;;;;;;;;;;;;28.01;100.00;99957.34;5027851;28;20377;-72
2023/08/14 09:19:12;;;;;;;;;;;;;;;28.01;100.00;99952.72;5031372;28;19960;-73
2023/08/14 09:21:37;;;;;;;;;;;;;;;28.04;100.00;99945.97;5031698;28;19929;-72
2023/08/14 09:24:03;;;;;;;;;;;;;;;28.09;100.00;99949.63;5031382;28;20381;-72
2023/08/14 09:26:28;;;;;;;;;;;;;;;28.11;100.00;99946.63;5031291;28;20293;-72
2023/08/14 09:28:55;;;;;;;;;;;;;;;28.18;100.00;99949.22;5031862;28;19975;-73
2023/08/14 09:31:20;;;;;;;;;;;;;;;28.24;100.00;99950.94;5031216;28;20015;-72
2023/08/14 09:33:45;;;;;;;;;;;;;;;28.32;100.00;99943.22;5031739;28;20476;-72
2023/08/14 09:36:12;;;;;;;;;;;;;;;28.39;100.00;99943.84;5035149;28;19980;-72
2023/08/14 09:38:38;;;;;;;;;;;;;;;28.45;100.00;99942.03;5035420;28;19967;-72
2023/08/14 09:41:04;;;;;;;;;;;;;;;28.46;100.00;99928.19;5037082;28;19929;-73
2023/08/14 09:43:30;;;;;;;;;;;;;;;28.50;100.00;99929.34;5036069;28;19975;-73
2023/08/14 09:45:56;;;;;;;;;;;;;;;28.54;100.00;99924.22;5035308;28;19928;-73
2023/08/14 09:48:22;;;;;;;;;;;;;;;28.58;100.00;99928.09;5034966;28;19947;-73
2023/08/14 09:50:51;;;;;;;;;;;;;;;28.59;100.00;99927.00;5035148;28;20369;-72
2023/08/14 09:53:17;;;;;;;;;;;;;;;28.63;100.00;99917.28;5034873;28;19921;-72
2023/08/14 09:55:43;;;;;;;;;;;;;;;28.67;100.00;99918.44;5034884;28;19967;-72
2023/08/14 09:58:09;;;;;;;;;;;;;;;28.71;100.00;99908.72;5034678;28;19928;-72
2023/08/14 10:00:36;;;;;;;;;;;;;;;28.76;100.00;99911.50;5035005;28;20328;-72
2023/08/14 10:03:02;;;;;;;;;;;;;;;28.79;100.00;99911.03;5034691;28;19921;-73
2023/08/14 10:05:28;;;;;;;;;;;;;;;28.84;100.00;99907.53;5034828;28;20377;-73
2023/08/14 10:07:54;;;;;;;;;;;;;;;28.88;100.00;99906.78;5035030;28;19940;-72
2023/08/14 10:10:20;;;;;;;;;;;;;;;28.94;100.00;99904.13;5034140;28;19932;-72
2023/08/14 10:12:50;;;;;;;;;;;;;;;28.97;100.00;99899.00;5034820;28;19921;-72
2023/08/14 10:15:20;;;;;;;;;;;;;;;29.02;100.00;99900.97;5030918;28;20015;-72
2023/08/14 10:17:49;;;;;;;;;;;;;;;29.08;100.00;99897.22;5031223;28;20388;-71
2023/08/14 10:20:17;;;;;;;;;;;;;;;29.12;100.00;99893.72;5030601;28;19928;-72
2023/08/14 10:22:43;;;;;;;;;;;;;;;29.19;100.00;99888.09;5030666;28;19944;-72
2023/08/14 10:25:10;;;;;;;;;;;;;;;29.26;100.00;99888.72;5033833;28;19948;-72
2023/08/14 10:27:35;;;;;;;;;;;;;;;29.35;100.00;99887.19;5034599;28;20004;-72
2023/08/14 10:30:01;;;;;;;;;;;;;;;29.40;100.00;99879.09;5034297;28;19921;-72
2023/08/14 10:32:27;;;;;;;;;;;;;;;29.43;100.00;99884.03;5034494;28;19967;-72
2023/08/14 10:34:53;;;;;;;;;;;;;;;29.46;100.00;99874.50;5034383;28;19921;-71
2023/08/14 10:37:26;;;;;;;;;;;;;;;29.45;100.00;99871.00;5041209;28;19921;-72
2023/08/14 10:39:51;;;;;;;;;;;;;;;29.46;100.00;99869.91;5033533;28;19979;-72
2023/08/14 10:42:17;;;;;;;;;;;;;;;29.47;100.00;99863.38;5033802;28;19921;-72
2023/08/14 10:44:43;;;;;;;;;;;;;;;29.46;100.00;99856.28;5033964;28;20001;-72
2023/08/14 10:47:11;;;;;;;;;;;;;;;29.48;100.00;99854.16;5033781;28;19928;-72
2023/08/14 10:49:48;;;;;;;;;;;;;;;29.53;100.00;99851.47;5034213;28;20051;-72
2023/08/14 10:52:17;;;;;;;;;;;;;;;29.59;100.00;99855.88;5030036;28;19925;-71
2023/08/14 10:54:52;;;;;;;;;;;;;;;29.66;100.00;99851.03;5030136;28;20405;-72
2023/08/14 10:57:17;;;;;;;;;;;;;;;29.73;100.00;99844.56;5030274;28;19921;-72
2023/08/14 10:59:53;;;;;;;;;;;;;;;29.79;100.00;99838.06;5034239;28;20270;-72
2023/08/14 11:02:19;;;;;;;;;;;;;;;29.89;100.00;99843.56;5030585;28;19932;-72
2023/08/14 11:05:07;;;;;;;;;;;;;;;29.90;100.00;99837.88;5033949;28;20356;-71
2023/08/14 11:07:33;;;;;;;;;;;;;;;29.95;100.00;99843.38;5032737;28;20047;-71
2023/08/14 11:09:59;;;;;;;;;;;;;;;29.99;100.00;99838.22;5033706;28;20341;-72
2023/08/14 11:12:25;;;;;;;;;;;;;;;30.06;100.00;99836.09;5033418;28;19959;-73
2023/08/14 11:14:50;;;;;;;;;;;;;;;30.10;100.00;99831.78;5033793;28;20352;-72
2023/08/14 11:17:16;;;;;;;;;;;;;;;30.17;100.00;99832.34;5033491;28;20034;-72
2023/08/14 11:19:41;;;;;;;;;;;;;;;30.14;100.00;99830.16;5033564;28;19928;-71
2023/08/14 11:22:06;;;;;;;;;;;;;;;30.18;100.00;99828.53;5033186;28;19929;-73
2023/08/14 11:24:36;;;;;;;;;;;;;;;30.24;99.68;99824.75;5033845;28;19928;-72
2023/08/14 11:27:02;;;;;;;;;;;;;;;30.25;100.00;99820.97;5033185;28;19921;-72
2023/08/14 11:29:28;;;;;;;;;;;;;;;30.32;100.00;99827.00;5033372;28;19929;-73
2023/08/14 11:31:54;;;;;;;;;;;;;;;30.34;100.00;99824.81;5033550;28;20404;-72
2023/08/14 11:34:20;;;;;;;;;;;;;;;30.33;100.00;99822.38;5033207;28;19947;-73
2023/08/14 11:36:56;;;;;;;;;;;;;;;30.32;100.00;99821.56;5032396;28;19921;-70
2023/08/14 11:39:21;;;;;;;;;;;;;;;30.37;100.00;99824.28;5030389;28;19933;-72
2023/08/14 11:41:46;;;;;;;;;;;;;;;30.44;100.00;99813.97;5034952;28;19975;-71
2023/08/14 11:44:12;;;;;;;;;;;;;;;30.46;100.00;99816.41;5030050;28;19921;-72
2023/08/14 11:46:38;;;;;;;;;;;;;;;30.46;100.00;99817.22;5033519;28;19921;-71
2023/08/14 11:49:04;;;;;;;;;;;;;;;30.44;99.70;99813.97;5033224;28;19921;-71
2023/08/14 11:51:29;;;;;;;;;;;;;;;30.55;99.27;99814.84;5033353;28;19929;-71
2023/08/14 11:53:55;;;;;;;;;;;;;;;30.62;98.78;99803.72;5033445;28;20434;-72
2023/08/14 11:56:20;;;;;;;;;;;;;;;30.61;98.64;99802.06;5032304;28;19921;-72
2023/08/14 11:58:46;;;;;;;;;;;;;;;30.59;99.25;99804.25;5033155;28;19928;-72
2023/08/14 12:01:11;;;;;;;;;;;;;;;30.58;99.80;99797.16;5032945;28;19921;-72
2023/08/14 12:03:37;;;;;;;;;;;;;;;30.55;99.46;99793.06;5033037;28;19955;-73
2023/08/14 12:06:05;;;;;;;;;;;;;;;30.52;98.97;99788.16;5032913;28;19925;-71
2023/08/14 12:08:31;;;;;;;;;;;;;;;30.73;98.40;99794.47;5033351;28;19944;-70
2023/08/14 12:10:59;;;;;;;;;;;;;;;30.98;99.01;99785.53;5034217;28;19921;-71
2023/08/14 12:13:25;;;;;;;;;;;;;;;31.22;95.43;99787.47;5036625;28;19956;-73
2023/08/14 12:15:50;;;;;;;;;;;;;;;31.44;93.63;99780.94;5035987;28;19924;-73
2023/08/14 12:18:22;;;;;;;;;;;;;;;31.65;92.95;99769.75;5034092;28;20000;-73
2023/08/14 12:20:51;;;;;;;;;;;;;;;31.88;91.93;99762.88;5029545;28;20340;-73
2023/08/14 12:23:17;;;;;;;;;;;;;;;32.10;88.16;99757.09;5032287;28;19921;-72
2023/08/14 12:25:42;;;;;;;;;;;;;;;32.31;87.34;99761.38;5028470;28;19968;-73
2023/08/14 12:28:07;;;;;;;;;;;;;;;32.43;85.11;99763.78;5032872;28;20400;-72
2023/08/14 12:30:33;;;;;;;;;;;;;;;32.38;84.29;99763.81;5037333;28;19948;-73
2023/08/14 12:32:58;;;;;;;;;;;;;;;32.22;85.51;99751.34;5037431;28;20281;-73